sensor_id;sensor_type;location;lat;lon;timestamp;pressure;altitude;pressure_sealevel;temperature;humidity
24440;BME280;12618;54.386;18.394;2022-11-14T00:00:45;100972.00;;;10.50;100.00
24440;BME280;12618;54.386;18.394;2022-11-14T00:03:16;100969.81;;;10.49;100.00
24440;BME280;12618;54.386;18.394;2022-11-14T00:05:47;100968.59;;;10.46;100.00
24440;BME280;12618;54.386;18.394;2022-11-14T00:08:22;100953.77;;;10.41;100.00
24440;BME280;12618;54.386;18.394;2022-11-14T00:10:54;100956.91;;;10.39;100.00
24440;BME280;12618;54.386;18.394;2022-11-14T00:13:25;100960.87;;;10.39;100.00
24440;BME280;12618;54.386;18.394;2022-11-14T00:15:55;100954.75;;;10.38;100.00
24440;BME280;12618;54.386;18.394;2022-11-14T00:18:26;100954.79;;;10.37;100.00
24440;BME280;12618;54.386;18.394;2022-11-14T00:20:57;100960.48;;;10.38;100.00
24440;BME280;12618;54.386;18.394;2022-11-14T00:23:27;100953.47;;;10.37;100.00
24440;BME280;12618;54.386;18.394;2022-11-14T00:25:58;100958.75;;;10.37;100.00
24440;BME280;12618;54.386;18.394;2022-11-14T00:28:28;100953.96;;;10.35;100.00
24440;BME280;12618;54.386;18.394;2022-11-14T00:30:59;100951.39;;;10.32;100.00
24440;BME280;12618;54.386;18.394;2022-11-14T00:33:30;100947.02;;;10.31;100.00
24440;BME280;12618;54.386;18.394;2022-11-14T00:36:00;100947.44;;;10.32;100.00
24440;BME280;12618;54.386;18.394;2022-11-14T00:38:31;100951.88;;;10.30;100.00
24440;BME280;12618;54.386;18.394;2022-11-14T00:41:02;100952.78;;;10.29;100.00
24440;BME280;12618;54.386;18.394;2022-11-14T00:43:32;100945.77;;;10.28;100.00
24440;BME280;12618;54.386;18.394;2022-11-14T00:46:03;100946.60;;;10.30;100.00
24440;BME280;12618;54.386;18.394;2022-11-14T00:48:34;100944.42;;;10.29;100.00
24440;BME280;12618;54.386;18.394;2022-11-14T00:51:04;100943.06;;;10.31;100.00
24440;BME280;12618;54.386;18.394;2022-11-14T00:53:35;100944.80;;;10.32;100.00
24440;BME280;12618;54.386;18.394;2022-11-14T00:56:06;100939.52;;;10.32;100.00
24440;BME280;12618;54.386;18.394;2022-11-14T00:58:37;100942.65;;;10.30;100.00
24440;BME280;12618;54.386;18.394;2022-11-14T01:01:08;100940.01;;;10.30;100.00
24440;BME280;12618;54.386;18.394;2022-11-14T01:03:38;100941.74;;;10.31;100.00
24440;BME280;12618;54.386;18.394;2022-11-14T01:06:10;100937.78;;;10.31;100.00
24440;BME280;12618;54.386;18.394;2022-11-14T01:08:41;100941.78;;;10.29;100.00
24440;BME280;12618;54.386;18.394;2022-11-14T01:11:15;100936.54;;;10.28;100.00
24440;BME280;12618;54.386;18.394;2022-11-14T01:13:46;100933.00;;;10.29;100.00
24440;BME280;12618;54.386;18.394;2022-11-14T01:16:17;100930.88;;;10.27;100.00
24440;BME280;12618;54.386;18.394;2022-11-14T01:18:49;100925.19;;;10.26;100.00
24440;BME280;12618;54.386;18.394;2022-11-14T01:21:19;100933.10;;;10.26;100.00
24440;BME280;12618;54.386;18.394;2022-11-14T01:23:50;100921.72;;;10.24;100.00
24440;BME280;12618;54.386;18.394;2022-11-14T01:26:21;100920.48;;;10.20;100.00
24440;BME280;12618;54.386;18.394;2022-11-14T01:28:52;100912.14;;;10.19;100.00
24440;BME280;12618;54.386;18.394;2022-11-14T01:31:24;100919.16;;;10.20;100.00
24440;BME280;12618;54.386;18.394;2022-11-14T01:33:55;100914.78;;;10.19;100.00
24440;BME280;12618;54.386;18.394;2022-11-14T01:36:26;100906.00;;;10.17;100.00
24440;BME280;12618;54.386;18.394;2022-11-14T01:38:56;100913.98;;;10.16;100.00
24440;BME280;12618;54.386;18.394;2022-11-14T01:41:27;100908.33;;;10.13;100.00
24440;BME280;12618;54.386;18.394;2022-11-14T01:43:58;100905.28;;;10.12;100.00
24440;BME280;12618;54.386;18.394;2022-11-14T01:46:34;100905.73;;;10.12;100.00
24440;BME280;12618;54.386;18.394;2022-11-14T01:49:20;100902.68;;;10.11;100.00
24440;BME280;12618;54.386;18.394;2022-11-14T01:51:58;100904.03;;;10.09;100.00
24440;BME280;12618;54.386;18.394;2022-11-14T01:54:28;100897.48;;;10.08;100.00
24440;BME280;12618;54.386;18.394;2022-11-14T01:57:02;100893.48;;;10.09;100.00
24440;BME280;12618;54.386;18.394;2022-11-14T01:59:37;100888.63;;;10.10;100.00
24440;BME280;12618;54.386;18.394;2022-11-14T02:02:18;100883.42;;;10.07;100.00
24440;BME280;12618;54.386;18.394;2022-11-14T02:04:58;100883.45;;;10.06;100.00
24440;BME280;12618;54.386;18.394;2022-11-14T02:07:32;100877.31;;;10.05;100.00
24440;BME280;12618;54.386;18.394;2022-11-14T02:10:13;100872.91;;;10.06;100.00
24440;BME280;12618;54.386;18.394;2022-11-14T02:12:41;100879.16;;;10.03;100.00
24440;BME280;12618;54.386;18.394;2022-11-14T02:15:12;100872.52;;;10.05;100.00
24440;BME280;12618;54.386;18.394;2022-11-14T02:17:43;100865.06;;;10.04;100.00
24440;BME280;12618;54.386;18.394;2022-11-14T02:20:26;100869.89;;;10.05;100.00
24440;BME280;12618;54.386;18.394;2022-11-14T02:23:02;100848.56;;;9.96;100.00
24440;BME280;12618;54.386;18.394;2022-11-14T02:25:33;100861.59;;;10.02;100.00
24440;BME280;12618;54.386;18.394;2022-11-14T02:28:06;100852.02;;;9.98;100.00
24440;BME280;12618;54.386;18.394;2022-11-14T02:30:37;100856.16;;;9.92;100.00
24440;BME280;12618;54.386;18.394;2022-11-14T02:33:07;100850.44;;;9.93;100.00
24440;BME280;12618;54.386;18.394;2022-11-14T02:35:38;100842.56;;;9.91;100.00
24440;BME280;12618;54.386;18.394;2022-11-14T02:38:09;100845.23;;;9.90;100.00
24440;BME280;12618;54.386;18.394;2022-11-14T02:40:39;100838.75;;;9.85;100.00
24440;BME280;12618;54.386;18.394;2022-11-14T02:43:10;100847.19;;;9.83;100.00
24440;BME280;12618;54.386;18.394;2022-11-14T02:45:41;100822.05;;;9.70;100.00
24440;BME280;12618;54.386;18.394;2022-11-14T02:48:11;100822.05;;;9.70;100.00
24440;BME280;12618;54.386;18.394;2022-11-14T02:50:42;100832.75;;;9.80;100.00
24440;BME280;12618;54.386;18.394;2022-11-14T02:53:13;100833.20;;;9.79;100.00
24440;BME280;12618;54.386;18.394;2022-11-14T02:55:43;100838.03;;;9.80;100.00
24440;BME280;12618;54.386;18.394;2022-11-14T02:58:14;100835.81;;;9.81;100.00
24440;BME280;12618;54.386;18.394;2022-11-14T03:00:45;100829.25;;;9.79;100.00
24440;BME280;12618;54.386;18.394;2022-11-14T03:03:15;100820.09;;;9.76;100.00
24440;BME280;12618;54.386;18.394;2022-11-14T03:05:46;100824.50;;;9.76;100.00
24440;BME280;12618;54.386;18.394;2022-11-14T03:08:17;100823.67;;;9.74;100.00
24440;BME280;12618;54.386;18.394;2022-11-14T03:10:47;100813.23;;;9.71;100.00
24440;BME280;12618;54.386;18.394;2022-11-14T03:13:18;100827.21;;;9.73;100.00
24440;BME280;12618;54.386;18.394;2022-11-14T03:15:48;100827.73;;;9.71;100.00
24440;BME280;12618;54.386;18.394;2022-11-14T03:18:19;100818.09;;;9.70;100.00
24440;BME280;12618;54.386;18.394;2022-11-14T03:20:50;100818.58;;;9.68;100.00
24440;BME280;12618;54.386;18.394;2022-11-14T03:23:20;100814.66;;;9.66;100.00
24440;BME280;12618;54.386;18.394;2022-11-14T03:25:51;100812.89;;;9.67;100.00
24440;BME280;12618;54.386;18.394;2022-11-14T03:28:22;100812.82;;;9.70;100.00
24440;BME280;12618;54.386;18.394;2022-11-14T03:30:52;100814.21;;;9.67;100.00
24440;BME280;12618;54.386;18.394;2022-11-14T03:33:23;100814.62;;;9.68;100.00
24440;BME280;12618;54.386;18.394;2022-11-14T03:35:54;100814.21;;;9.67;100.00
24440;BME280;12618;54.386;18.394;2022-11-14T03:38:24;100810.33;;;9.64;100.00
24440;BME280;12618;54.386;18.394;2022-11-14T03:40:57;100802.91;;;9.62;100.00
24440;BME280;12618;54.386;18.394;2022-11-14T03:43:30;100806.86;;;9.62;100.00
24440;BME280;12618;54.386;18.394;2022-11-14T03:46:02;100802.04;;;9.61;100.00
24440;BME280;12618;54.386;18.394;2022-11-14T03:48:33;100802.87;;;9.63;100.00
24440;BME280;12618;54.386;18.394;2022-11-14T03:51:04;100798.50;;;9.62;100.00
24440;BME280;12618;54.386;18.394;2022-11-14T03:53:35;100794.20;;;9.60;100.00
24440;BME280;12618;54.386;18.394;2022-11-14T03:56:06;100806.06;;;9.60;100.00
24440;BME280;12618;54.386;18.394;2022-11-14T03:58:36;100799.06;;;9.59;100.00
24440;BME280;12618;54.386;18.394;2022-11-14T04:01:07;100802.18;;;9.57;100.00
24440;BME280;12618;54.386;18.394;2022-11-14T04:03:37;100796.98;;;9.54;100.00
24440;BME280;12618;54.386;18.394;2022-11-14T04:06:08;100793.94;;;9.53;100.00
24440;BME280;12618;54.386;18.394;2022-11-14T04:08:40;100803.08;;;9.56;100.00
24440;BME280;12618;54.386;18.394;2022-11-14T04:11:11;100801.35;;;9.55;100.00
24440;BME280;12618;54.386;18.394;2022-11-14T04:13:41;100788.66;;;9.53;100.00
24440;BME280;12618;54.386;18.394;2022-11-14T04:16:12;100788.28;;;9.50;100.00
24440;BME280;12618;54.386;18.394;2022-11-14T04:18:42;100789.73;;;9.45;100.00
24440;BME280;12618;54.386;18.394;2022-11-14T04:21:13;100793.37;;;9.40;100.00
24440;BME280;12618;54.386;18.394;2022-11-14T04:23:44;100784.23;;;9.38;100.00
24440;BME280;12618;54.386;18.394;2022-11-14T04:26:14;100785.20;;;9.34;100.00
24440;BME280;12618;54.386;18.394;2022-11-14T04:28:45;100782.11;;;9.35;100.00
24440;BME280;12618;54.386;18.394;2022-11-14T04:31:16;100783.88;;;9.34;100.00
24440;BME280;12618;54.386;18.394;2022-11-14T04:33:46;100778.27;;;9.30;100.00
24440;BME280;12618;54.386;18.394;2022-11-14T04:36:17;100777.85;;;9.29;100.00
24440;BME280;12618;54.386;18.394;2022-11-14T04:38:47;100767.00;;;9.25;100.00
24440;BME280;12618;54.386;18.394;2022-11-14T04:41:18;100770.47;;;9.27;100.00
24440;BME280;12618;54.386;18.394;2022-11-14T04:43:49;100766.90;;;9.28;100.00
24440;BME280;12618;54.386;18.394;2022-11-14T04:46:20;100760.38;;;9.27;100.00
24440;BME280;12618;54.386;18.394;2022-11-14T04:48:50;100758.23;;;9.25;100.00
24440;BME280;12618;54.386;18.394;2022-11-14T04:51:21;100758.72;;;9.23;100.00
24440;BME280;12618;54.386;18.394;2022-11-14T04:53:52;100759.23;;;9.19;100.00
24440;BME280;12618;54.386;18.394;2022-11-14T04:56:22;100748.35;;;9.17;100.00
24440;BME280;12618;54.386;18.394;2022-11-14T04:58:54;100752.23;;;9.18;100.00
24440;BME280;12618;54.386;18.394;2022-11-14T05:01:25;100755.28;;;9.19;100.00
24440;BME280;12618;54.386;18.394;2022-11-14T05:03:55;100750.84;;;9.21;100.00
24440;BME280;12618;54.386;18.394;2022-11-14T05:06:26;100737.72;;;9.20;100.00
24440;BME280;12618;54.386;18.394;2022-11-14T05:08:57;100750.40;;;9.22;100.00
24440;BME280;12618;54.386;18.394;2022-11-14T05:11:27;100745.58;;;9.21;100.00
24440;BME280;12618;54.386;18.394;2022-11-14T05:13:58;100739.97;;;9.17;100.00
24440;BME280;12618;54.386;18.394;2022-11-14T05:16:29;100746.97;;;9.18;100.00
24440;BME280;12618;54.386;18.394;2022-11-14T05:18:59;100744.33;;;9.18;100.00
24440;BME280;12618;54.386;18.394;2022-11-14T05:21:30;100751.33;;;9.19;100.00
24440;BME280;12618;54.386;18.394;2022-11-14T05:24:00;100750.12;;;9.16;100.00
24440;BME280;12618;54.386;18.394;2022-11-14T05:26:31;100744.44;;;9.15;100.00
24440;BME280;12618;54.386;18.394;2022-11-14T05:29:02;100746.20;;;9.15;100.00
24440;BME280;12618;54.386;18.394;2022-11-14T05:31:33;100744.02;;;9.14;100.00
24440;BME280;12618;54.386;18.394;2022-11-14T05:34:04;100746.34;;;9.08;100.00
24440;BME280;12618;54.386;18.394;2022-11-14T05:36:34;100739.79;;;9.07;100.00
24440;BME280;12618;54.386;18.394;2022-11-14T05:39:05;100743.80;;;9.05;100.00
24440;BME280;12618;54.386;18.394;2022-11-14T05:41:35;100736.84;;;9.03;100.00
24440;BME280;12618;54.386;18.394;2022-11-14T05:44:06;100735.11;;;9.02;100.00
24440;BME280;12618;54.386;18.394;2022-11-14T05:46:37;100739.48;;;9.03;100.00
24440;BME280;12618;54.386;18.394;2022-11-14T05:49:08;100743.01;;;9.02;100.00
24440;BME280;12618;54.386;18.394;2022-11-14T05:51:38;100735.14;;;9.00;100.00
24440;BME280;12618;54.386;18.394;2022-11-14T05:54:09;100733.38;;;9.01;100.00
24440;BME280;12618;54.386;18.394;2022-11-14T05:56:39;100732.09;;;8.99;100.00
24440;BME280;12618;54.386;18.394;2022-11-14T05:59:10;100733.80;;;9.02;100.00
24440;BME280;12618;54.386;18.394;2022-11-14T06:01:41;100737.26;;;9.04;100.00
24440;BME280;12618;54.386;18.394;2022-11-14T06:04:12;100732.41;;;9.05;100.00
24440;BME280;12618;54.386;18.394;2022-11-14T06:06:44;100730.58;;;9.07;100.00
24440;BME280;12618;54.386;18.394;2022-11-14T06:09:15;100735.91;;;9.05;100.00
24440;BME280;12618;54.386;18.394;2022-11-14T06:11:46;100732.80;;;9.06;100.00
24440;BME280;12618;54.386;18.394;2022-11-14T06:14:16;100733.20;;;9.07;100.00
24440;BME280;12618;54.386;18.394;2022-11-14T06:16:47;100731.09;;;9.05;100.00
24440;BME280;12618;54.386;18.394;2022-11-14T06:19:17;100738.99;;;9.05;100.00
24440;BME280;12618;54.386;18.394;2022-11-14T06:21:49;100735.11;;;9.02;100.00
24440;BME280;12618;54.386;18.394;2022-11-14T06:24:19;100740.34;;;9.03;100.00
24440;BME280;12618;54.386;18.394;2022-11-14T06:26:50;100743.01;;;9.02;100.00
24440;BME280;12618;54.386;18.394;2022-11-14T06:29:21;100738.64;;;9.01;100.00
24440;BME280;12618;54.386;18.394;2022-11-14T06:31:51;100739.55;;;9.00;100.00
24440;BME280;12618;54.386;18.394;2022-11-14T06:34:22;100742.59;;;9.01;100.00
24440;BME280;12618;54.386;18.394;2022-11-14T06:36:52;100742.17;;;9.00;100.00
24440;BME280;12618;54.386;18.394;2022-11-14T06:39:23;100740.86;;;9.00;100.00
24440;BME280;12618;54.386;18.394;2022-11-14T06:41:54;100738.71;;;8.98;100.00
24440;BME280;12618;54.386;18.394;2022-11-14T06:44:24;100744.84;;;8.98;100.00
24440;BME280;12618;54.386;18.394;2022-11-14T06:46:55;100744.88;;;8.97;100.00
24440;BME280;12618;54.386;18.394;2022-11-14T06:49:25;100738.84;;;8.93;100.00
24440;BME280;12618;54.386;18.394;2022-11-14T06:51:57;100741.09;;;8.91;100.00
24440;BME280;12618;54.386;18.394;2022-11-14T06:54:27;100743.73;;;8.91;100.00
24440;BME280;12618;54.386;18.394;2022-11-14T06:56:58;100745.87;;;8.93;100.00
24440;BME280;12618;54.386;18.394;2022-11-14T06:59:28;100747.61;;;8.94;100.00
24440;BME280;12618;54.386;18.394;2022-11-14T07:01:59;100741.41;;;8.95;100.00
24440;BME280;12618;54.386;18.394;2022-11-14T07:04:30;100744.05;;;8.95;100.00
24440;BME280;12618;54.386;18.394;2022-11-14T07:07:00;100751.91;;;8.96;100.00
24440;BME280;12618;54.386;18.394;2022-11-14T07:09:31;100754.51;;;8.98;100.00
24440;BME280;12618;54.386;18.394;2022-11-14T07:12:01;100752.70;;;9.00;100.00
24440;BME280;12618;54.386;18.394;2022-11-14T07:14:32;100761.02;;;9.01;100.00
24440;BME280;12618;54.386;18.394;2022-11-14T07:17:03;100746.13;;;9.00;100.00
24440;BME280;12618;54.386;18.394;2022-11-14T07:19:37;100751.45;;;8.97;100.00
24440;BME280;12618;54.386;18.394;2022-11-14T07:22:07;100752.81;;;8.95;100.00
24440;BME280;12618;54.386;18.394;2022-11-14T07:24:38;100746.78;;;8.92;100.00
24440;BME280;12618;54.386;18.394;2022-11-14T07:27:09;100752.94;;;8.91;100.00
24440;BME280;12618;54.386;18.394;2022-11-14T07:29:42;100741.99;;;8.90;100.00
24440;BME280;12618;54.386;18.394;2022-11-14T07:32:13;100733.74;;;8.86;100.00
24440;BME280;12618;54.386;18.394;2022-11-14T07:34:43;100741.23;;;8.85;100.00
24440;BME280;12618;54.386;18.394;2022-11-14T07:37:14;100739.17;;;8.80;100.00
24440;BME280;12618;54.386;18.394;2022-11-14T07:39:45;100736.67;;;8.73;100.00
24440;BME280;12618;54.386;18.394;2022-11-14T07:42:15;100736.77;;;8.70;100.00
24440;BME280;12618;54.386;18.394;2022-11-14T07:44:46;100733.23;;;8.71;100.00
24440;BME280;12618;54.386;18.394;2022-11-14T07:47:16;100728.87;;;8.70;100.00
24440;BME280;12618;54.386;18.394;2022-11-14T07:49:47;100734.48;;;8.73;100.00
24440;BME280;12618;54.386;18.394;2022-11-14T07:52:18;100730.47;;;8.76;100.00
24440;BME280;12618;54.386;18.394;2022-11-14T07:54:48;100723.92;;;8.74;100.00
24440;BME280;12618;54.386;18.394;2022-11-14T07:57:19;100714.11;;;8.63;100.00
24440;BME280;12618;54.386;18.394;2022-11-14T07:59:49;100724.51;;;8.69;100.00
24440;BME280;12618;54.386;18.394;2022-11-14T08:02:20;100730.22;;;8.69;100.00
24440;BME280;12618;54.386;18.394;2022-11-14T08:04:51;100713.98;;;8.69;100.00
24440;BME280;12618;54.386;18.394;2022-11-14T08:07:21;100716.45;;;8.75;100.00
24440;BME280;12618;54.386;18.394;2022-11-14T08:09:52;100704.13;;;8.78;100.00
24440;BME280;12618;54.386;18.394;2022-11-14T08:12:22;100709.32;;;8.81;100.00
24440;BME280;12618;54.386;18.394;2022-11-14T08:14:53;100706.27;;;8.80;100.00
24440;BME280;12618;54.386;18.394;2022-11-14T08:17:24;100695.39;;;8.75;100.00
24440;BME280;12618;54.386;18.394;2022-11-14T08:19:54;100709.19;;;8.85;100.00
24440;BME280;12618;54.386;18.394;2022-11-14T08:22:25;100702.13;;;8.87;100.00
24440;BME280;12618;54.386;18.394;2022-11-14T08:24:56;100707.31;;;8.90;100.00
24440;BME280;12618;54.386;18.394;2022-11-14T08:27:27;100705.55;;;8.91;100.00
24440;BME280;12618;54.386;18.394;2022-11-14T08:29:58;100698.48;;;8.93;100.00
24440;BME280;12618;54.386;18.394;2022-11-14T08:32:28;100691.31;;;8.98;100.00
24440;BME280;12618;54.386;18.394;2022-11-14T08:34:59;100686.47;;;8.99;100.00
24440;BME280;12618;54.386;18.394;2022-11-14T08:37:30;100689.45;;;9.03;100.00
24440;BME280;12618;54.386;18.394;2022-11-14T08:40:01;100685.05;;;9.03;100.00
24440;BME280;12618;54.386;18.394;2022-11-14T08:42:32;100683.28;;;9.04;100.00
24440;BME280;12618;54.386;18.394;2022-11-14T08:45:03;100679.22;;;9.07;100.00
24440;BME280;12618;54.386;18.394;2022-11-14T08:47:34;100668.23;;;9.07;100.00
24440;BME280;12618;54.386;18.394;2022-11-14T08:50:06;100670.84;;;9.09;100.00
24440;BME280;12618;54.386;18.394;2022-11-14T08:52:37;100665.42;;;9.15;100.00
24440;BME280;12618;54.386;18.394;2022-11-14T08:55:08;100652.15;;;9.18;100.00
24440;BME280;12618;54.386;18.394;2022-11-14T08:57:38;100653.84;;;9.21;100.00
24440;BME280;12618;54.386;18.394;2022-11-14T09:00:10;100653.39;;;9.21;100.00
24440;BME280;12618;54.386;18.394;2022-11-14T09:02:40;100652.98;;;9.20;100.00
24440;BME280;12618;54.386;18.394;2022-11-14T09:05:11;100644.97;;;9.25;100.00
24440;BME280;12618;54.386;18.394;2022-11-14T09:07:41;100639.13;;;9.28;100.00
24440;BME280;12618;54.386;18.394;2022-11-14T09:10:12;100639.63;;;9.28;100.00
24440;BME280;12618;54.386;18.394;2022-11-14T09:12:43;100631.49;;;9.35;100.00
24440;BME280;12618;54.386;18.394;2022-11-14T09:15:13;100632.40;;;9.34;100.00
24440;BME280;12618;54.386;18.394;2022-11-14T09:17:44;100629.31;;;9.35;100.00
24440;BME280;12618;54.386;18.394;2022-11-14T09:20:15;100626.03;;;9.41;100.00
24440;BME280;12618;54.386;18.394;2022-11-14T09:22:46;100631.30;;;9.41;100.00
24440;BME280;12618;54.386;18.394;2022-11-14T09:25:17;100625.59;;;9.42;100.00
24440;BME280;12618;54.386;18.394;2022-11-14T09:27:47;100628.78;;;9.38;100.00
24440;BME280;12618;54.386;18.394;2022-11-14T09:30:18;100625.28;;;9.38;100.00
24440;BME280;12618;54.386;18.394;2022-11-14T09:32:49;100629.98;;;9.41;100.00
24440;BME280;12618;54.386;18.394;2022-11-14T09:35:20;100629.69;;;9.37;100.00
24440;BME280;12618;54.386;18.394;2022-11-14T09:37:59;100628.86;;;9.35;100.00
24440;BME280;12618;54.386;18.394;2022-11-14T09:40:38;100618.47;;;9.29;100.00
24440;BME280;12618;54.386;18.394;2022-11-14T09:45:55;100618.32;;;9.35;100.00
24440;BME280;12618;54.386;18.394;2022-11-14T09:48:27;100620.13;;;9.33;100.00
24440;BME280;12618;54.386;18.394;2022-11-14T09:51:14;100621.86;;;9.34;100.00
24440;BME280;12618;54.386;18.394;2022-11-14T09:54:15;100615.42;;;9.28;100.00
24440;BME280;12618;54.386;18.394;2022-11-14T09:56:43;100614.94;;;9.30;100.00
24440;BME280;12618;54.386;18.394;2022-11-14T09:59:14;100610.50;;;9.32;100.00
24440;BME280;12618;54.386;18.394;2022-11-14T10:10:50;100602.52;;;9.35;100.00
24440;BME280;12618;54.386;18.394;2022-11-14T10:13:37;100600.18;;;9.39;100.00
24440;BME280;12618;54.386;18.394;2022-11-14T10:24:45;100588.88;;;9.50;100.00
24440;BME280;12618;54.386;18.394;2022-11-14T10:27:22;100582.70;;;9.52;100.00
24440;BME280;12618;54.386;18.394;2022-11-14T10:30:12;100575.41;;;9.46;100.00
24440;BME280;12618;54.386;18.394;2022-11-14T10:32:54;100580.06;;;9.52;100.00
24440;BME280;12618;54.386;18.394;2022-11-14T10:41:02;100572.44;;;9.42;100.00
24440;BME280;12618;54.386;18.394;2022-11-14T10:43:45;100572.44;;;9.42;100.00
24440;BME280;12618;54.386;18.394;2022-11-14T10:46:38;100561.41;;;9.44;100.00
24440;BME280;12618;54.386;18.394;2022-11-14T10:49:20;100556.63;;;9.42;100.00
24440;BME280;12618;54.386;18.394;2022-11-14T10:51:54;100558.27;;;9.46;100.00
24440;BME280;12618;54.386;18.394;2022-11-14T10:54:50;100545.18;;;9.43;100.00
24440;BME280;12618;54.386;18.394;2022-11-14T10:57:20;100539.83;;;9.46;100.00
24440;BME280;12618;54.386;18.394;2022-11-14T10:59:52;100540.65;;;9.48;100.00
24440;BME280;12618;54.386;18.394;2022-11-14T11:02:24;100539.05;;;9.43;100.00
24440;BME280;12618;54.386;18.394;2022-11-14T11:05:03;100535.63;;;9.39;100.00
24440;BME280;12618;54.386;18.394;2022-11-14T11:07:29;100530.28;;;9.42;100.00
24440;BME280;12618;54.386;18.394;2022-11-14T11:10:23;100529.38;;;9.43;100.00
24440;BME280;12618;54.386;18.394;2022-11-14T11:13:13;100533.82;;;9.41;100.00
24440;BME280;12618;54.386;18.394;2022-11-14T11:15:47;100525.91;;;9.41;100.00
24440;BME280;12618;54.386;18.394;2022-11-14T11:18:30;100533.94;;;9.38;100.00
24440;BME280;12618;54.386;18.394;2022-11-14T11:23:53;100528.91;;;9.29;100.00
24440;BME280;12618;54.386;18.394;2022-11-14T11:26:26;100521.91;;;9.28;100.00
24440;BME280;12618;54.386;18.394;2022-11-14T11:31:54;100524.23;;;9.09;100.00
24440;BME280;12618;54.386;18.394;2022-11-14T11:34:28;100529.05;;;9.10;100.00
24440;BME280;12618;54.386;18.394;2022-11-14T11:37:04;100519.00;;;9.08;100.00
24440;BME280;12618;54.386;18.394;2022-11-14T11:39:38;100520.18;;;8.98;100.00
24440;BME280;12618;54.386;18.394;2022-11-14T11:42:13;100523.98;;;8.88;100.00
24440;BME280;12618;54.386;18.394;2022-11-14T11:44:45;100521.64;;;8.77;100.00
24440;BME280;12618;54.386;18.394;2022-11-14T11:47:17;100503.75;;;8.73;100.00
24440;BME280;12618;54.386;18.394;2022-11-14T11:49:49;100500.36;;;8.70;100.00
24440;BME280;12618;54.386;18.394;2022-11-14T11:52:43;100495.70;;;8.63;100.00
24440;BME280;12618;54.386;18.394;2022-11-14T11:55:19;100494.91;;;8.61;100.00
24440;BME280;12618;54.386;18.394;2022-11-14T12:00:36;100496.60;;;8.62;100.00
24440;BME280;12618;54.386;18.394;2022-11-14T12:03:14;100491.00;;;8.60;100.00
24440;BME280;12618;54.386;18.394;2022-11-14T12:06:20;100487.91;;;8.60;100.00
24440;BME280;12618;54.386;18.394;2022-11-14T12:11:35;100481.90;;;8.55;100.00
24440;BME280;12618;54.386;18.394;2022-11-14T12:20:13;100475.32;;;8.55;100.00
24440;BME280;12618;54.386;18.394;2022-11-14T12:28:57;100463.89;;;8.56;100.00
24440;BME280;12618;54.386;18.394;2022-11-14T12:31:31;100456.41;;;8.57;100.00
24440;BME280;12618;54.386;18.394;2022-11-14T12:34:10;100456.91;;;8.55;100.00
24440;BME280;12618;54.386;18.394;2022-11-14T12:36:42;100458.30;;;8.52;100.00
24440;BME280;12618;54.386;18.394;2022-11-14T12:39:25;100459.30;;;8.48;100.00
24440;BME280;12618;54.386;18.394;2022-11-14T12:42:05;100451.56;;;8.42;100.00
24440;BME280;12618;54.386;18.394;2022-11-14T12:44:38;100443.26;;;8.41;100.00
24440;BME280;12618;54.386;18.394;2022-11-14T12:47:11;100445.47;;;8.40;100.00
24440;BME280;12618;54.386;18.394;2022-11-14T13:06:02;100437.19;;;8.21;100.00
24440;BME280;12618;54.386;18.394;2022-11-14T13:14:24;100440.18;;;8.08;100.00
24440;BME280;12618;54.386;18.394;2022-11-14T13:17:23;100432.12;;;7.97;100.00
24440;BME280;12618;54.386;18.394;2022-11-14T13:20:30;100424.48;;;7.88;100.00
24440;BME280;12618;54.386;18.394;2022-11-14T13:28:47;100420.50;;;7.90;100.00
24440;BME280;12618;54.386;18.394;2022-11-14T13:31:19;100417.11;;;7.85;100.00
24440;BME280;12618;54.386;18.394;2022-11-14T13:34:01;100418.05;;;7.84;100.00
24440;BME280;12618;54.386;18.394;2022-11-14T13:36:54;100424.99;;;7.85;100.00
24440;BME280;12618;54.386;18.394;2022-11-14T13:42:07;100413.86;;;7.75;100.00
24440;BME280;12618;54.386;18.394;2022-11-14T13:50:18;100405.97;;;7.75;100.00
24440;BME280;12618;54.386;18.394;2022-11-14T13:52:54;100405.17;;;7.73;100.00
24440;BME280;12618;54.386;18.394;2022-11-14T14:07:06;100386.95;;;7.65;100.00
24440;BME280;12618;54.386;18.394;2022-11-14T14:20:55;100372.92;;;7.66;100.00
24440;BME280;12618;54.386;18.394;2022-11-14T14:26:43;100364.24;;;7.63;100.00
24440;BME280;12618;54.386;18.394;2022-11-14T14:31:50;100360.95;;;7.55;100.00
24440;BME280;12618;54.386;18.394;2022-11-14T14:34:25;100364.23;;;7.47;100.00
24440;BME280;12618;54.386;18.394;2022-11-14T14:36:56;100359.98;;;7.41;100.00
24440;BME280;12618;54.386;18.394;2022-11-14T14:39:28;100355.17;;;7.41;100.00
24440;BME280;12618;54.386;18.394;2022-11-14T14:41:59;100360.05;;;7.40;100.00
24440;BME280;12618;54.386;18.394;2022-11-14T14:44:31;100347.36;;;7.39;100.00
24440;BME280;12618;54.386;18.394;2022-11-14T14:47:15;100343.88;;;7.39;100.00
24440;BME280;12618;54.386;18.394;2022-11-14T14:49:46;100342.69;;;7.33;100.00
24440;BME280;12618;54.386;18.394;2022-11-14T14:52:36;100345.38;;;7.29;100.00
24440;BME280;12618;54.386;18.394;2022-11-14T14:55:17;100345.48;;;7.26;100.00
24440;BME280;12618;54.386;18.394;2022-11-14T14:57:41;100336.70;;;7.27;100.00
24440;BME280;12618;54.386;18.394;2022-11-14T15:02:49;100338.92;;;7.26;100.00